sensor_id;sensor_type;location;lat;lon;timestamp;pressure;altitude;pressure_sealevel;temperature;humidity
70546;BME280;58098;51.680;5.134;2023-04-28T00:01:15;101404.44;;;9.75;100.00
70546;BME280;58098;51.680;5.134;2023-04-28T00:03:41;101409.66;;;9.75;100.00
70546;BME280;58098;51.680;5.134;2023-04-28T00:06:06;101396.28;;;9.67;100.00
70546;BME280;58098;51.680;5.134;2023-04-28T00:08:32;101386.16;;;9.63;100.00
70546;BME280;58098;51.680;5.134;2023-04-28T00:10:57;101398.16;;;9.65;100.00
70546;BME280;58098;51.680;5.134;2023-04-28T00:13:23;101394.81;;;9.63;100.00
70546;BME280;58098;51.680;5.134;2023-04-28T00:15:49;101389.81;;;9.60;100.00
70546;BME280;58098;51.680;5.134;2023-04-28T00:18:16;101384.78;;;9.57;100.00
70546;BME280;58098;51.680;5.134;2023-04-28T00:20:42;101381.47;;;9.55;100.00
70546;BME280;58098;51.680;5.134;2023-04-28T00:23:07;101366.34;;;9.48;100.00
70546;BME280;58098;51.680;5.134;2023-04-28T00:25:32;101362.16;;;9.45;100.00
70546;BME280;58098;51.680;5.134;2023-04-28T00:27:58;101373.53;;;9.44;100.00
70546;BME280;58098;51.680;5.134;2023-04-28T00:30:23;101374.66;;;9.40;100.00
70546;BME280;58098;51.680;5.134;2023-04-28T00:32:49;101367.44;;;9.31;100.00
70546;BME280;58098;51.680;5.134;2023-04-28T00:35:14;101368.28;;;9.32;100.00
70546;BME280;58098;51.680;5.134;2023-04-28T00:37:40;101362.25;;;9.31;100.00
70546;BME280;58098;51.680;5.134;2023-04-28T00:40:06;101353.88;;;9.26;100.00
70546;BME280;58098;51.680;5.134;2023-04-28T00:42:31;101348.50;;;9.29;100.00
70546;BME280;58098;51.680;5.134;2023-04-28T00:44:56;101340.13;;;9.24;100.00
70546;BME280;58098;51.680;5.134;2023-04-28T00:47:22;101337.00;;;9.19;100.00
70546;BME280;58098;51.680;5.134;2023-04-28T00:49:47;101339.78;;;9.16;100.00
70546;BME280;58098;51.680;5.134;2023-04-28T00:52:14;101332.41;;;9.10;100.00
70546;BME280;58098;51.680;5.134;2023-04-28T00:54:39;101312.59;;;9.07;100.00
70546;BME280;58098;51.680;5.134;2023-04-28T00:57:05;101320.00;;;9.13;100.00
70546;BME280;58098;51.680;5.134;2023-04-28T00:59:32;101321.88;;;9.11;100.00
70546;BME280;58098;51.680;5.134;2023-04-28T01:01:58;101301.53;;;9.04;100.00
70546;BME280;58098;51.680;5.134;2023-04-28T01:04:25;101300.41;;;9.08;100.00
70546;BME280;58098;51.680;5.134;2023-04-28T01:06:52;101295.72;;;9.00;100.00
70546;BME280;58098;51.680;5.134;2023-04-28T01:09:18;101289.22;;;8.93;100.00
70546;BME280;58098;51.680;5.134;2023-04-28T01:11:44;101284.53;;;8.98;100.00
70546;BME280;58098;51.680;5.134;2023-04-28T01:14:09;101275.47;;;8.91;100.00
70546;BME280;58098;51.680;5.134;2023-04-28T01:16:37;101273.72;;;8.92;100.00
70546;BME280;58098;51.680;5.134;2023-04-28T01:19:10;101277.88;;;8.94;100.00
70546;BME280;58098;51.680;5.134;2023-04-28T01:21:37;101291.94;;;8.92;100.00
70546;BME280;58098;51.680;5.134;2023-04-28T01:24:05;101269.97;;;8.83;100.00
70546;BME280;58098;51.680;5.134;2023-04-28T01:26:30;101285.03;;;8.91;100.00
70546;BME280;58098;51.680;5.134;2023-04-28T01:28:55;101290.66;;;8.85;100.00
70546;BME280;58098;51.680;5.134;2023-04-28T01:31:21;101288.91;;;8.85;100.00
70546;BME280;58098;51.680;5.134;2023-04-28T01:33:46;101260.97;;;8.75;100.00
70546;BME280;58098;51.680;5.134;2023-04-28T01:36:11;101266.50;;;8.83;100.00
70546;BME280;58098;51.680;5.134;2023-04-28T01:38:36;101251.09;;;8.80;100.00
70546;BME280;58098;51.680;5.134;2023-04-28T01:41:02;101243.41;;;8.78;100.00
70546;BME280;58098;51.680;5.134;2023-04-28T01:43:28;101257.22;;;8.79;100.00
70546;BME280;58098;51.680;5.134;2023-04-28T01:45:53;101254.53;;;8.80;100.00
70546;BME280;58098;51.680;5.134;2023-04-28T01:48:18;101245.78;;;8.81;100.00
70546;BME280;58098;51.680;5.134;2023-04-28T01:50:44;101233.19;;;8.75;100.00
70546;BME280;58098;51.680;5.134;2023-04-28T01:53:09;101212.88;;;8.68;100.00
70546;BME280;58098;51.680;5.134;2023-04-28T01:55:34;101227.31;;;8.72;100.00
70546;BME280;58098;51.680;5.134;2023-04-28T01:58:00;101211.28;;;8.65;100.00
70546;BME280;58098;51.680;5.134;2023-04-28T02:00:25;101233.69;;;8.68;100.00
70546;BME280;58098;51.680;5.134;2023-04-28T02:02:51;101244.44;;;8.76;100.00
70546;BME280;58098;51.680;5.134;2023-04-28T02:05:16;101237.75;;;8.72;100.00
70546;BME280;58098;51.680;5.134;2023-04-28T02:07:42;101233.69;;;8.68;100.00
70546;BME280;58098;51.680;5.134;2023-04-28T02:10:07;101226.06;;;8.64;100.00
70546;BME280;58098;51.680;5.134;2023-04-28T02:12:33;101227.56;;;8.69;100.00
70546;BME280;58098;51.680;5.134;2023-04-28T02:14:58;101218.19;;;8.66;100.00
70546;BME280;58098;51.680;5.134;2023-04-28T02:17:25;101196.84;;;8.61;100.00
70546;BME280;58098;51.680;5.134;2023-04-28T02:19:54;101197.63;;;8.61;100.00
70546;BME280;58098;51.680;5.134;2023-04-28T02:22:21;101182.34;;;8.57;100.00
70546;BME280;58098;51.680;5.134;2023-04-28T02:24:46;101189.66;;;8.64;100.00
70546;BME280;58098;51.680;5.134;2023-04-28T02:27:12;101182.97;;;8.60;100.00
70546;BME280;58098;51.680;5.134;2023-04-28T02:29:37;101173.19;;;8.51;100.00
70546;BME280;58098;51.680;5.134;2023-04-28T02:32:02;101177.13;;;8.44;100.00
70546;BME280;58098;51.680;5.134;2023-04-28T02:34:28;101179.50;;;8.47;100.00
70546;BME280;58098;51.680;5.134;2023-04-28T02:36:54;101170.13;;;8.45;100.00
70546;BME280;58098;51.680;5.134;2023-04-28T02:39:19;101194.00;;;8.51;100.00
70546;BME280;58098;51.680;5.134;2023-04-28T02:41:46;101175.44;;;8.43;100.00
70546;BME280;58098;51.680;5.134;2023-04-28T02:44:11;101186.72;;;8.56;100.00
70546;BME280;58098;51.680;5.134;2023-04-28T02:46:36;101168.91;;;8.50;100.00
70546;BME280;58098;51.680;5.134;2023-04-28T02:49:01;101165.38;;;8.51;100.00
70546;BME280;58098;51.680;5.134;2023-04-28T02:51:27;101168.53;;;8.56;100.00
70546;BME280;58098;51.680;5.134;2023-04-28T02:53:53;101148.41;;;8.46;100.00
70546;BME280;58098;51.680;5.134;2023-04-28T02:56:18;101142.66;;;8.41;100.00
70546;BME280;58098;51.680;5.134;2023-04-28T02:58:43;101147.16;;;8.39;100.00
70546;BME280;58098;51.680;5.134;2023-04-28T03:01:08;101155.88;;;8.38;100.00
70546;BME280;58098;51.680;5.134;2023-04-28T03:03:34;101146.31;;;8.38;100.00
70546;BME280;58098;51.680;5.134;2023-04-28T03:05:59;101166.50;;;8.47;100.00
70546;BME280;58098;51.680;5.134;2023-04-28T03:08:24;101149.44;;;8.43;100.00
70546;BME280;58098;51.680;5.134;2023-04-28T03:10:50;101164.44;;;8.52;100.00
70546;BME280;58098;51.680;5.134;2023-04-28T03:13:15;101150.81;;;8.49;100.00
70546;BME280;58098;51.680;5.134;2023-04-28T03:15:40;101150.50;;;8.53;100.00
70546;BME280;58098;51.680;5.134;2023-04-28T03:18:06;101149.56;;;8.54;100.00
70546;BME280;58098;51.680;5.134;2023-04-28T03:20:31;101150.31;;;8.56;100.00
70546;BME280;58098;51.680;5.134;2023-04-28T03:22:56;101152.81;;;8.58;100.00
70546;BME280;58098;51.680;5.134;2023-04-28T03:25:22;101139.06;;;8.56;100.00
70546;BME280;58098;51.680;5.134;2023-04-28T03:27:47;101150.22;;;8.58;100.00
70546;BME280;58098;51.680;5.134;2023-04-28T03:30:12;101135.00;;;8.52;100.00
70546;BME280;58098;51.680;5.134;2023-04-28T03:32:38;101142.59;;;8.55;100.00
70546;BME280;58098;51.680;5.134;2023-04-28T03:35:03;101127.31;;;8.50;100.00
70546;BME280;58098;51.680;5.134;2023-04-28T03:37:29;101144.88;;;8.59;100.00
70546;BME280;58098;51.680;5.134;2023-04-28T03:39:54;101138.97;;;8.57;100.00
70546;BME280;58098;51.680;5.134;2023-04-28T03:42:19;101136.16;;;8.60;100.00
70546;BME280;58098;51.680;5.134;2023-04-28T03:44:45;101134.72;;;8.56;100.00
70546;BME280;58098;51.680;5.134;2023-04-28T03:47:10;101124.31;;;8.56;100.00
70546;BME280;58098;51.680;5.134;2023-04-28T03:49:35;101134.28;;;8.62;100.00
70546;BME280;58098;51.680;5.134;2023-04-28T03:52:01;101120.03;;;8.55;100.00
70546;BME280;58098;51.680;5.134;2023-04-28T03:54:28;101119.72;;;8.60;100.00
70546;BME280;58098;51.680;5.134;2023-04-28T03:56:53;101114.41;;;8.61;100.00
70546;BME280;58098;51.680;5.134;2023-04-28T03:59:19;101125.34;;;8.67;100.00
70546;BME280;58098;51.680;5.134;2023-04-28T04:01:44;101122.22;;;8.61;100.00
70546;BME280;58098;51.680;5.134;2023-04-28T04:04:09;101109.44;;;8.58;100.00
70546;BME280;58098;51.680;5.134;2023-04-28T04:06:34;101113.09;;;8.69;100.00
70546;BME280;58098;51.680;5.134;2023-04-28T04:09:00;101106.53;;;8.63;100.00
70546;BME280;58098;51.680;5.134;2023-04-28T04:11:25;101096.19;;;8.61;100.00
70546;BME280;58098;51.680;5.134;2023-04-28T04:13:50;101099.09;;;8.57;100.00
70546;BME280;58098;51.680;5.134;2023-04-28T04:16:16;101112.88;;;8.72;100.00
70546;BME280;58098;51.680;5.134;2023-04-28T04:18:41;101091.00;;;8.61;100.00
70546;BME280;58098;51.680;5.134;2023-04-28T04:21:06;101107.47;;;8.75;100.00
70546;BME280;58098;51.680;5.134;2023-04-28T04:23:32;101098.75;;;8.76;100.00
70546;BME280;58098;51.680;5.134;2023-04-28T04:25:57;101097.91;;;8.75;100.00
70546;BME280;58098;51.680;5.134;2023-04-28T04:28:22;101102.06;;;8.78;100.00
70546;BME280;58098;51.680;5.134;2023-04-28T04:30:48;101087.69;;;8.72;100.00
70546;BME280;58098;51.680;5.134;2023-04-28T04:33:13;101098.31;;;8.82;100.00
70546;BME280;58098;51.680;5.134;2023-04-28T04:35:38;101092.56;;;8.77;100.00
70546;BME280;58098;51.680;5.134;2023-04-28T04:38:04;101081.44;;;8.75;100.00
70546;BME280;58098;51.680;5.134;2023-04-28T04:40:29;101089.38;;;8.86;100.00
70546;BME280;58098;51.680;5.134;2023-04-28T04:42:54;101087.50;;;8.88;100.00
70546;BME280;58098;51.680;5.134;2023-04-28T04:45:20;101085.75;;;8.88;100.00
70546;BME280;58098;51.680;5.134;2023-04-28T04:47:45;101081.56;;;8.86;100.00
70546;BME280;58098;51.680;5.134;2023-04-28T04:50:11;101077.94;;;8.88;100.00
70546;BME280;58098;51.680;5.134;2023-04-28T04:52:36;101083.84;;;8.90;100.00
70546;BME280;58098;51.680;5.134;2023-04-28T04:55:03;101067.53;;;8.88;100.00
70546;BME280;58098;51.680;5.134;2023-04-28T04:57:29;101062.41;;;8.87;100.00
70546;BME280;58098;51.680;5.134;2023-04-28T04:59:54;101046.28;;;8.82;100.00
70546;BME280;58098;51.680;5.134;2023-04-28T05:02:19;101063.84;;;8.91;100.00
70546;BME280;58098;51.680;5.134;2023-04-28T05:04:45;101056.88;;;8.91;100.00
70546;BME280;58098;51.680;5.134;2023-04-28T05:07:10;101057.50;;;8.95;100.00
70546;BME280;58098;51.680;5.134;2023-04-28T05:09:35;101060.63;;;9.00;100.00
70546;BME280;58098;51.680;5.134;2023-04-28T05:12:01;101063.97;;;9.02;100.00
70546;BME280;58098;51.680;5.134;2023-04-28T05:14:26;101068.31;;;9.01;100.00
70546;BME280;58098;51.680;5.134;2023-04-28T05:16:51;101063.75;;;9.05;100.00
70546;BME280;58098;51.680;5.134;2023-04-28T05:19:17;101067.69;;;9.10;100.00
70546;BME280;58098;51.680;5.134;2023-04-28T05:21:42;101059.59;;;9.15;100.00
70546;BME280;58098;51.680;5.134;2023-04-28T05:24:07;101044.56;;;9.18;100.00
70546;BME280;58098;51.680;5.134;2023-04-28T05:26:33;101037.59;;;9.19;100.00
70546;BME280;58098;51.680;5.134;2023-04-28T05:28:59;101031.44;;;9.20;100.00
70546;BME280;58098;51.680;5.134;2023-04-28T05:31:24;101017.59;;;9.19;100.00
70546;BME280;58098;51.680;5.134;2023-04-28T05:33:50;101023.19;;;9.26;100.00
70546;BME280;58098;51.680;5.134;2023-04-28T05:36:15;101047.34;;;9.41;100.00
70546;BME280;58098;51.680;5.134;2023-04-28T05:38:42;101043.69;;;9.43;100.00
70546;BME280;58098;51.680;5.134;2023-04-28T05:41:07;101053.84;;;9.59;100.00
70546;BME280;58098;51.680;5.134;2023-04-28T05:43:33;101044.03;;;9.62;100.00
70546;BME280;58098;51.680;5.134;2023-04-28T05:45:58;101042.13;;;9.64;100.00
70546;BME280;58098;51.680;5.134;2023-04-28T05:48:24;101041.22;;;9.65;100.00
70546;BME280;58098;51.680;5.134;2023-04-28T05:50:49;101062.38;;;9.84;100.00
70546;BME280;58098;51.680;5.134;2023-04-28T05:53:15;101052.91;;;9.83;100.00
70546;BME280;58098;51.680;5.134;2023-04-28T05:55:40;101060.72;;;9.83;100.00
70546;BME280;58098;51.680;5.134;2023-04-28T05:58:05;101065.38;;;9.91;100.00
70546;BME280;58098;51.680;5.134;2023-04-28T06:00:32;101064.09;;;9.96;100.00
70546;BME280;58098;51.680;5.134;2023-04-28T06:02:58;101069.81;;;10.02;100.00
70546;BME280;58098;51.680;5.134;2023-04-28T06:05:24;101068.16;;;10.01;100.00
70546;BME280;58098;51.680;5.134;2023-04-28T06:07:50;101051.41;;;9.92;100.00
70546;BME280;58098;51.680;5.134;2023-04-28T06:10:15;101061.63;;;9.95;100.00
70546;BME280;58098;51.680;5.134;2023-04-28T06:12:41;101064.09;;;9.96;100.00
70546;BME280;58098;51.680;5.134;2023-04-28T06:15:06;101062.44;;;9.95;100.00
70546;BME280;58098;51.680;5.134;2023-04-28T06:17:32;101053.69;;;9.96;100.00
70546;BME280;58098;51.680;5.134;2023-04-28T06:19:58;101047.03;;;9.92;100.00
70546;BME280;58098;51.680;5.134;2023-04-28T06:22:24;101044.81;;;9.99;100.00
70546;BME280;58098;51.680;5.134;2023-04-28T06:24:50;101051.94;;;10.08;100.00
70546;BME280;58098;51.680;5.134;2023-04-28T06:27:16;101053.50;;;10.11;100.00
70546;BME280;58098;51.680;5.134;2023-04-28T06:29:41;101042.16;;;10.12;100.00
70546;BME280;58098;51.680;5.134;2023-04-28T06:32:06;101039.59;;;10.23;100.00
70546;BME280;58098;51.680;5.134;2023-04-28T06:34:33;101037.81;;;10.34;100.00
70546;BME280;58098;51.680;5.134;2023-04-28T06:36:58;101044.16;;;10.43;100.00
70546;BME280;58098;51.680;5.134;2023-04-28T06:39:24;101029.69;;;10.39;100.00
70546;BME280;58098;51.680;5.134;2023-04-28T06:41:49;101027.56;;;10.44;100.00
70546;BME280;58098;51.680;5.134;2023-04-28T06:44:14;101030.19;;;10.66;100.00
70546;BME280;58098;51.680;5.134;2023-04-28T06:46:40;101029.38;;;10.77;100.00
70546;BME280;58098;51.680;5.134;2023-04-28T06:49:06;101024.50;;;10.83;100.00
70546;BME280;58098;51.680;5.134;2023-04-28T06:51:32;101027.00;;;10.96;100.00
70546;BME280;58098;51.680;5.134;2023-04-28T06:53:57;101024.03;;;11.00;100.00
70546;BME280;58098;51.680;5.134;2023-04-28T06:56:23;101027.38;;;11.02;100.00
70546;BME280;58098;51.680;5.134;2023-04-28T06:58:49;101016.91;;;10.91;100.00
70546;BME280;58098;51.680;5.134;2023-04-28T07:01:15;101026.41;;;11.03;100.00
70546;BME280;58098;51.680;5.134;2023-04-28T07:03:41;101020.72;;;11.09;100.00
70546;BME280;58098;51.680;5.134;2023-04-28T07:06:06;101019.78;;;11.21;100.00
70546;BME280;58098;51.680;5.134;2023-04-28T07:08:31;101012.63;;;11.23;100.00
70546;BME280;58098;51.680;5.134;2023-04-28T07:10:57;101026.25;;;11.27;100.00
70546;BME280;58098;51.680;5.134;2023-04-28T07:13:22;101025.56;;;11.25;100.00
70546;BME280;58098;51.680;5.134;2023-04-28T07:15:48;101039.94;;;11.31;100.00
70546;BME280;58098;51.680;5.134;2023-04-28T07:18:13;101032.44;;;11.37;100.00
70546;BME280;58098;51.680;5.134;2023-04-28T07:20:39;101023.78;;;11.25;100.00
70546;BME280;58098;51.680;5.134;2023-04-28T07:23:05;101033.88;;;11.30;100.00
70546;BME280;58098;51.680;5.134;2023-04-28T07:25:30;101038.25;;;11.29;100.00
70546;BME280;58098;51.680;5.134;2023-04-28T07:27:56;101019.78;;;11.21;100.00
70546;BME280;58098;51.680;5.134;2023-04-28T07:30:21;101028.53;;;11.20;100.00
70546;BME280;58098;51.680;5.134;2023-04-28T07:32:47;101037.09;;;11.22;100.00
70546;BME280;58098;51.680;5.134;2023-04-28T07:35:13;101030.44;;;11.18;100.00
70546;BME280;58098;51.680;5.134;2023-04-28T07:37:38;101033.75;;;11.20;100.00
70546;BME280;58098;51.680;5.134;2023-04-28T07:40:04;101043.97;;;11.23;100.00
70546;BME280;58098;51.680;5.134;2023-04-28T07:42:30;101036.63;;;11.28;100.00
70546;BME280;58098;51.680;5.134;2023-04-28T07:44:56;101041.59;;;11.32;100.00
70546;BME280;58098;51.680;5.134;2023-04-28T07:47:23;101044.44;;;11.40;100.00
70546;BME280;58098;51.680;5.134;2023-04-28T07:49:48;101037.56;;;11.39;100.00
70546;BME280;58098;51.680;5.134;2023-04-28T07:52:14;101035.41;;;11.44;100.00
70546;BME280;58098;51.680;5.134;2023-04-28T07:54:39;101036.91;;;11.57;100.00
70546;BME280;58098;51.680;5.134;2023-04-28T07:57:04;101024.19;;;11.75;100.00
70546;BME280;58098;51.680;5.134;2023-04-28T07:59:32;101024.72;;;11.89;100.00
70546;BME280;58098;51.680;5.134;2023-04-28T08:01:57;101012.22;;;11.93;100.00
70546;BME280;58098;51.680;5.134;2023-04-28T08:04:23;101024.25;;;12.16;100.00
70546;BME280;58098;51.680;5.134;2023-04-28T08:06:48;101025.47;;;12.33;100.00
70546;BME280;58098;51.680;5.134;2023-04-28T08:09:14;101007.47;;;12.39;100.00
70546;BME280;58098;51.680;5.134;2023-04-28T08:11:39;101042.81;;;12.54;100.00
70546;BME280;58098;51.680;5.134;2023-04-28T08:14:04;101023.59;;;12.44;100.00
70546;BME280;58098;51.680;5.134;2023-04-28T08:16:30;101041.03;;;12.34;100.00
70546;BME280;58098;51.680;5.134;2023-04-28T08:18:56;101030.94;;;12.30;100.00
70546;BME280;58098;51.680;5.134;2023-04-28T08:21:22;101028.50;;;12.17;100.00
70546;BME280;58098;51.680;5.134;2023-04-28T08:23:47;101037.19;;;12.18;100.00
70546;BME280;58098;51.680;5.134;2023-04-28T08:26:13;101033.28;;;12.12;100.00
70546;BME280;58098;51.680;5.134;2023-04-28T08:28:38;101016.50;;;12.15;100.00
70546;BME280;58098;51.680;5.134;2023-04-28T08:31:04;101030.47;;;12.36;100.00
70546;BME280;58098;51.680;5.134;2023-04-28T08:33:30;101027.84;;;12.36;100.00
70546;BME280;58098;51.680;5.134;2023-04-28T08:35:55;101019.59;;;12.40;100.00
70546;BME280;58098;51.680;5.134;2023-04-28T08:38:21;101013.97;;;12.45;100.00
70546;BME280;58098;51.680;5.134;2023-04-28T08:40:48;101014.78;;;12.66;100.00
70546;BME280;58098;51.680;5.134;2023-04-28T08:43:13;101033.25;;;12.95;100.00
70546;BME280;58098;51.680;5.134;2023-04-28T08:45:43;101036.00;;;13.14;100.00
70546;BME280;58098;51.680;5.134;2023-04-28T08:48:29;100998.88;;;13.09;100.00
70546;BME280;58098;51.680;5.134;2023-04-28T08:50:58;101031.22;;;13.38;100.00
70546;BME280;58098;51.680;5.134;2023-04-28T08:53:25;101028.66;;;13.57;100.00
70546;BME280;58098;51.680;5.134;2023-04-28T08:55:54;101029.34;;;13.69;100.00
70546;BME280;58098;51.680;5.134;2023-04-28T08:58:24;101019.81;;;13.68;100.00
70546;BME280;58098;51.680;5.134;2023-04-28T09:00:53;101019.38;;;13.53;100.00
70546;BME280;58098;51.680;5.134;2023-04-28T09:03:19;101029.59;;;13.56;100.00
70546;BME280;58098;51.680;5.134;2023-04-28T09:05:44;101016.91;;;13.61;100.00
70546;BME280;58098;51.680;5.134;2023-04-28T09:08:10;101029.91;;;13.72;100.00
70546;BME280;58098;51.680;5.134;2023-04-28T09:10:38;101034.59;;;13.78;100.00
70546;BME280;58098;51.680;5.134;2023-04-28T09:13:03;101034.34;;;13.81;100.00
70546;BME280;58098;51.680;5.134;2023-04-28T09:17:58;101027.56;;;13.79;100.00
70546;BME280;58098;51.680;5.134;2023-04-28T09:20:25;101020.22;;;13.73;100.00
70546;BME280;58098;51.680;5.134;2023-04-28T09:22:52;101029.09;;;13.81;100.00
70546;BME280;58098;51.680;5.134;2023-04-28T09:25:19;101027.56;;;13.88;100.00
70546;BME280;58098;51.680;5.134;2023-04-28T09:27:46;101008.09;;;13.81;100.00
70546;BME280;58098;51.680;5.134;2023-04-28T09:30:12;101026.63;;;13.89;100.00
70546;BME280;58098;51.680;5.134;2023-04-28T09:32:38;101004.66;;;13.90;100.00
70546;BME280;58098;51.680;5.134;2023-04-28T09:35:03;101019.13;;;13.95;100.00
70546;BME280;58098;51.680;5.134;2023-04-28T09:37:31;101008.38;;;13.88;100.00
70546;BME280;58098;51.680;5.134;2023-04-28T09:44:59;101008.78;;;13.83;100.00
70546;BME280;58098;51.680;5.134;2023-04-28T09:47:24;100982.72;;;13.82;100.00
70546;BME280;58098;51.680;5.134;2023-04-28T09:49:57;101013.59;;;14.36;100.00
70546;BME280;58098;51.680;5.134;2023-04-28T09:52:23;101023.19;;;14.74;100.00
70546;BME280;58098;51.680;5.134;2023-04-28T09:54:52;101010.53;;;14.96;100.00
70546;BME280;58098;51.680;5.134;2023-04-28T09:57:18;101027.56;;;15.19;100.00
70546;BME280;58098;51.680;5.134;2023-04-28T09:59:46;101004.81;;;15.10;100.00
70546;BME280;58098;51.680;5.134;2023-04-28T10:02:14;101018.34;;;15.15;100.00
70546;BME280;58098;51.680;5.134;2023-04-28T10:04:44;101008.31;;;15.01;100.00
70546;BME280;58098;51.680;5.134;2023-04-28T10:07:17;101002.66;;;14.96;100.00
70546;BME280;58098;51.680;5.134;2023-04-28T10:09:45;101022.59;;;14.89;100.00
70546;BME280;58098;51.680;5.134;2023-04-28T10:12:21;101018.63;;;14.76;100.00
70546;BME280;58098;51.680;5.134;2023-04-28T10:14:48;101029.00;;;14.68;100.00
70546;BME280;58098;51.680;5.134;2023-04-28T10:17:21;101021.06;;;14.50;100.00
70546;BME280;58098;51.680;5.134;2023-04-28T10:19:49;101015.00;;;14.40;100.00
70546;BME280;58098;51.680;5.134;2023-04-28T10:27:37;101032.81;;;14.17;100.00
70546;BME280;58098;51.680;5.134;2023-04-28T10:30:23;101029.50;;;14.06;100.00
70546;BME280;58098;51.680;5.134;2023-04-28T10:35:44;101035.19;;;13.92;100.00
70546;BME280;58098;51.680;5.134;2023-04-28T10:38:14;101034.88;;;13.75;100.00
70546;BME280;58098;51.680;5.134;2023-04-28T10:40:40;101044.13;;;13.70;100.00
70546;BME280;58098;51.680;5.134;2023-04-28T10:43:08;101026.97;;;13.56;100.00
70546;BME280;58098;51.680;5.134;2023-04-28T10:46:04;101031.81;;;13.61;100.00
70546;BME280;58098;51.680;5.134;2023-04-28T10:56:11;101007.22;;;14.29;100.00
70546;BME280;58098;51.680;5.134;2023-04-28T10:58:38;101023.41;;;14.43;100.00
70546;BME280;58098;51.680;5.134;2023-04-28T11:04:01;101030.97;;;14.56;100.00
70546;BME280;58098;51.680;5.134;2023-04-28T11:06:33;101023.25;;;14.54;100.00
70546;BME280;58098;51.680;5.134;2023-04-28T11:09:01;101020.47;;;14.56;100.00
70546;BME280;58098;51.680;5.134;2023-04-28T11:11:29;101023.38;;;14.53;100.00
70546;BME280;58098;51.680;5.134;2023-04-28T11:16:54;101022.81;;;14.59;100.00
70546;BME280;58098;51.680;5.134;2023-04-28T11:19:24;101017.03;;;14.55;100.00
70546;BME280;58098;51.680;5.134;2023-04-28T11:21:51;101016.38;;;14.44;100.00
70546;BME280;58098;51.680;5.134;2023-04-28T11:24:17;101023.84;;;14.39;100.00
70546;BME280;58098;51.680;5.134;2023-04-28T11:26:43;101003.09;;;14.26;100.00
70546;BME280;58098;51.680;5.134;2023-04-28T11:29:08;101019.41;;;14.30;100.00
70546;BME280;58098;51.680;5.134;2023-04-28T11:31:35;101013.19;;;14.12;100.00
70546;BME280;58098;51.680;5.134;2023-04-28T11:36:33;101032.66;;;13.80;100.00
70546;BME280;58098;51.680;5.134;2023-04-28T11:39:04;101037.75;;;13.63;100.00
70546;BME280;58098;51.680;5.134;2023-04-28T11:41:31;101031.06;;;13.30;100.00
70546;BME280;58098;51.680;5.134;2023-04-28T11:43:58;101046.22;;;13.27;100.00
70546;BME280;58098;51.680;5.134;2023-04-28T11:46:24;101044.97;;;13.21;100.00
70546;BME280;58098;51.680;5.134;2023-04-28T11:49:00;101042.25;;;13.02;100.00
70546;BME280;58098;51.680;5.134;2023-04-28T11:51:37;101060.31;;;13.05;100.00
70546;BME280;58098;51.680;5.134;2023-04-28T11:54:04;101057.78;;;12.94;100.00
70546;BME280;58098;51.680;5.134;2023-04-28T11:56:38;101062.34;;;12.92;100.00
70546;BME280;58098;51.680;5.134;2023-04-28T12:01:32;101066.53;;;12.83;100.00
70546;BME280;58098;51.680;5.134;2023-04-28T12:03:58;101063.22;;;12.81;100.00
70546;BME280;58098;51.680;5.134;2023-04-28T12:06:25;101061.91;;;12.87;100.00
70546;BME280;58098;51.680;5.134;2023-04-28T12:08:50;101053.72;;;12.80;100.00
70546;BME280;58098;51.680;5.134;2023-04-28T12:11:17;101062.63;;;12.98;100.00
70546;BME280;58098;51.680;5.134;2023-04-28T12:13:42;101030.81;;;13.03;100.00
70546;BME280;58098;51.680;5.134;2023-04-28T12:16:08;101048.31;;;13.33;100.00
70546;BME280;58098;51.680;5.134;2023-04-28T12:18:36;101049.75;;;13.65;100.00
70546;BME280;58098;51.680;5.134;2023-04-28T12:21:03;101043.72;;;13.94;100.00
70546;BME280;58098;51.680;5.134;2023-04-28T12:23:33;101051.75;;;14.40;100.00
70546;BME280;58098;51.680;5.134;2023-04-28T12:25:59;101043.13;;;14.67;100.00
70546;BME280;58098;51.680;5.134;2023-04-28T12:28:40;101052.78;;;15.12;100.00
70546;BME280;58098;51.680;5.134;2023-04-28T12:31:08;101051.81;;;15.41;100.00
70546;BME280;58098;51.680;5.134;2023-04-28T12:33:34;101046.28;;;15.71;100.00
70546;BME280;58098;51.680;5.134;2023-04-28T12:36:03;101044.78;;;15.86;100.00
70546;BME280;58098;51.680;5.134;2023-04-28T12:38:29;101058.16;;;16.10;100.00
70546;BME280;58098;51.680;5.134;2023-04-28T12:40:55;101048.28;;;16.30;100.00
70546;BME280;58098;51.680;5.134;2023-04-28T12:43:20;101053.19;;;16.25;100.00
70546;BME280;58098;51.680;5.134;2023-04-28T12:45:49;101041.16;;;16.05;100.00
70546;BME280;58098;51.680;5.134;2023-04-28T12:48:15;101057.09;;;15.68;100.00
70546;BME280;58098;51.680;5.134;2023-04-28T12:50:40;101050.16;;;15.40;100.00
70546;BME280;58098;51.680;5.134;2023-04-28T12:53:05;101062.59;;;15.20;100.00
70546;BME280;58098;51.680;5.134;2023-04-28T12:55:31;101069.53;;;15.11;100.00
70546;BME280;58098;51.680;5.134;2023-04-28T12:57:56;101070.06;;;15.15;100.00
70546;BME280;58098;51.680;5.134;2023-04-28T13:00:21;101072.25;;;15.19;100.00
70546;BME280;58098;51.680;5.134;2023-04-28T13:02:48;101059.28;;;15.18;100.00
70546;BME280;58098;51.680;5.134;2023-04-28T13:05:13;101081.38;;;15.25;100.00
70546;BME280;58098;51.680;5.134;2023-04-28T13:07:38;101074.22;;;15.17;100.00
70546;BME280;58098;51.680;5.134;2023-04-28T13:10:04;101080.31;;;15.18;100.00
70546;BME280;58098;51.680;5.134;2023-04-28T13:12:30;101089.59;;;15.12;100.00
70546;BME280;58098;51.680;5.134;2023-04-28T13:14:55;101075.66;;;15.02;100.00